sensor_id;sensor_type;location;lat;lon;timestamp;P1;durP1;ratioP1;P2;durP2;ratioP2
47413;SDS011;33163;0.000;0.000;2022-10-15T00:02:06;3.30;;;2.17;;
47413;SDS011;33163;0.000;0.000;2022-10-15T00:04:33;5.38;;;2.63;;
47413;SDS011;33163;0.000;0.000;2022-10-15T00:07:00;9.70;;;3.08;;
47413;SDS011;33163;0.000;0.000;2022-10-15T00:09:27;4.00;;;2.63;;
47413;SDS011;33163;0.000;0.000;2022-10-15T00:11:54;7.30;;;2.55;;
47413;SDS011;33163;0.000;0.000;2022-10-15T00:14:22;4.72;;;2.00;;
47413;SDS011;33163;0.000;0.000;2022-10-15T00:16:50;4.60;;;1.80;;
47413;SDS011;33163;0.000;0.000;2022-10-15T00:19:17;5.07;;;2.45;;
47413;SDS011;33163;0.000;0.000;2022-10-15T00:21:44;5.03;;;2.60;;
47413;SDS011;33163;0.000;0.000;2022-10-15T00:24:10;6.10;;;1.77;;
47413;SDS011;33163;0.000;0.000;2022-10-15T00:26:37;3.08;;;2.22;;
47413;SDS011;33163;0.000;0.000;2022-10-15T00:29:04;3.40;;;1.95;;
47413;SDS011;33163;0.000;0.000;2022-10-15T00:31:32;2.70;;;2.50;;
47413;SDS011;33163;0.000;0.000;2022-10-15T00:33:59;4.40;;;2.28;;
47413;SDS011;33163;0.000;0.000;2022-10-15T00:36:27;3.83;;;2.20;;
47413;SDS011;33163;0.000;0.000;2022-10-15T00:38:55;3.92;;;2.05;;
47413;SDS011;33163;0.000;0.000;2022-10-15T00:41:25;5.53;;;2.70;;
47413;SDS011;33163;0.000;0.000;2022-10-15T00:43:54;3.38;;;2.30;;
47413;SDS011;33163;0.000;0.000;2022-10-15T00:46:23;3.80;;;2.50;;
47413;SDS011;33163;0.000;0.000;2022-10-15T00:48:53;2.53;;;2.00;;
47413;SDS011;33163;0.000;0.000;2022-10-15T00:51:23;2.50;;;1.83;;
47413;SDS011;33163;0.000;0.000;2022-10-15T00:53:55;3.17;;;2.13;;
47413;SDS011;33163;0.000;0.000;2022-10-15T00:56:22;3.22;;;2.20;;
47413;SDS011;33163;0.000;0.000;2022-10-15T00:58:50;3.88;;;2.20;;
47413;SDS011;33163;0.000;0.000;2022-10-15T01:01:19;3.58;;;2.10;;
47413;SDS011;33163;0.000;0.000;2022-10-15T01:03:46;6.63;;;2.30;;
47413;SDS011;33163;0.000;0.000;2022-10-15T01:06:14;2.88;;;2.22;;
47413;SDS011;33163;0.000;0.000;2022-10-15T01:08:41;4.63;;;2.35;;
47413;SDS011;33163;0.000;0.000;2022-10-15T01:11:12;2.72;;;2.08;;
47413;SDS011;33163;0.000;0.000;2022-10-15T01:13:52;2.85;;;1.95;;
47413;SDS011;33163;0.000;0.000;2022-10-15T01:18:58;3.72;;;2.13;;
47413;SDS011;33163;0.000;0.000;2022-10-15T01:21:31;3.28;;;2.40;;
47413;SDS011;33163;0.000;0.000;2022-10-15T01:27:14;3.42;;;2.35;;
47413;SDS011;33163;0.000;0.000;2022-10-15T01:32:53;4.20;;;2.53;;
47413;SDS011;33163;0.000;0.000;2022-10-15T01:35:32;2.72;;;2.00;;
47413;SDS011;33163;0.000;0.000;2022-10-15T01:38:08;3.92;;;2.00;;
47413;SDS011;33163;0.000;0.000;2022-10-15T01:40:45;3.63;;;2.28;;
47413;SDS011;33163;0.000;0.000;2022-10-15T01:43:16;3.40;;;2.10;;
47413;SDS011;33163;0.000;0.000;2022-10-15T01:45:51;2.60;;;1.90;;
47413;SDS011;33163;0.000;0.000;2022-10-15T01:48:22;2.65;;;1.90;;
47413;SDS011;33163;0.000;0.000;2022-10-15T01:50:52;3.30;;;1.85;;
47413;SDS011;33163;0.000;0.000;2022-10-15T01:53:22;4.25;;;2.47;;
47413;SDS011;33163;0.000;0.000;2022-10-15T01:55:52;3.33;;;2.08;;
47413;SDS011;33163;0.000;0.000;2022-10-15T01:58:22;3.25;;;1.95;;
47413;SDS011;33163;0.000;0.000;2022-10-15T02:00:51;4.47;;;2.30;;
47413;SDS011;33163;0.000;0.000;2022-10-15T02:03:20;4.60;;;2.00;;
47413;SDS011;33163;0.000;0.000;2022-10-15T02:05:48;4.00;;;2.20;;
47413;SDS011;33163;0.000;0.000;2022-10-15T02:08:21;2.72;;;2.13;;
47413;SDS011;33163;0.000;0.000;2022-10-15T02:10:58;3.15;;;2.30;;
47413;SDS011;33163;0.000;0.000;2022-10-15T02:13:31;3.70;;;2.20;;
47413;SDS011;33163;0.000;0.000;2022-10-15T02:16:05;4.07;;;2.70;;
47413;SDS011;33163;0.000;0.000;2022-10-15T02:18:40;2.35;;;2.05;;
47413;SDS011;33163;0.000;0.000;2022-10-15T02:21:13;3.60;;;2.30;;
47413;SDS011;33163;0.000;0.000;2022-10-15T02:23:44;4.18;;;2.22;;
47413;SDS011;33163;0.000;0.000;2022-10-15T02:26:15;2.60;;;2.00;;
47413;SDS011;33163;0.000;0.000;2022-10-15T02:28:44;2.58;;;1.88;;
47413;SDS011;33163;0.000;0.000;2022-10-15T02:31:17;2.67;;;1.75;;
47413;SDS011;33163;0.000;0.000;2022-10-15T02:33:46;5.13;;;2.20;;
47413;SDS011;33163;0.000;0.000;2022-10-15T02:36:14;2.58;;;2.22;;
47413;SDS011;33163;0.000;0.000;2022-10-15T02:38:43;3.58;;;2.13;;
47413;SDS011;33163;0.000;0.000;2022-10-15T02:41:11;2.90;;;1.85;;
47413;SDS011;33163;0.000;0.000;2022-10-15T02:43:38;4.10;;;2.28;;
47413;SDS011;33163;0.000;0.000;2022-10-15T02:46:06;2.30;;;2.10;;
47413;SDS011;33163;0.000;0.000;2022-10-15T02:48:37;4.05;;;1.90;;
47413;SDS011;33163;0.000;0.000;2022-10-15T02:51:04;2.17;;;1.98;;
47413;SDS011;33163;0.000;0.000;2022-10-15T02:53:31;6.07;;;2.30;;
47413;SDS011;33163;0.000;0.000;2022-10-15T02:55:58;3.13;;;2.20;;
47413;SDS011;33163;0.000;0.000;2022-10-15T02:58:25;4.95;;;2.33;;
47413;SDS011;33163;0.000;0.000;2022-10-15T03:00:53;3.97;;;2.20;;
47413;SDS011;33163;0.000;0.000;2022-10-15T03:03:19;5.30;;;2.83;;
47413;SDS011;33163;0.000;0.000;2022-10-15T03:05:47;7.22;;;2.85;;
47413;SDS011;33163;0.000;0.000;2022-10-15T03:08:14;3.45;;;2.63;;
47413;SDS011;33163;0.000;0.000;2022-10-15T03:10:41;4.10;;;2.42;;
47413;SDS011;33163;0.000;0.000;2022-10-15T03:13:09;4.32;;;2.92;;
47413;SDS011;33163;0.000;0.000;2022-10-15T03:15:36;4.85;;;2.33;;
47413;SDS011;33163;0.000;0.000;2022-10-15T03:18:03;4.00;;;2.63;;
47413;SDS011;33163;0.000;0.000;2022-10-15T03:20:30;8.93;;;3.17;;
47413;SDS011;33163;0.000;0.000;2022-10-15T03:22:58;3.80;;;2.28;;
47413;SDS011;33163;0.000;0.000;2022-10-15T03:25:25;4.63;;;2.70;;
47413;SDS011;33163;0.000;0.000;2022-10-15T03:27:52;3.53;;;2.80;;
47413;SDS011;33163;0.000;0.000;2022-10-15T03:30:19;4.07;;;2.72;;
47413;SDS011;33163;0.000;0.000;2022-10-15T03:32:45;3.47;;;2.85;;
47413;SDS011;33163;0.000;0.000;2022-10-15T03:35:12;6.60;;;2.63;;
47413;SDS011;33163;0.000;0.000;2022-10-15T03:37:39;4.63;;;2.55;;
47413;SDS011;33163;0.000;0.000;2022-10-15T03:40:08;4.43;;;2.30;;
47413;SDS011;33163;0.000;0.000;2022-10-15T03:42:35;3.58;;;2.40;;
47413;SDS011;33163;0.000;0.000;2022-10-15T03:45:02;6.35;;;2.63;;
47413;SDS011;33163;0.000;0.000;2022-10-15T03:47:29;2.70;;;2.40;;
47413;SDS011;33163;0.000;0.000;2022-10-15T03:49:55;3.42;;;2.53;;
47413;SDS011;33163;0.000;0.000;2022-10-15T03:52:22;3.05;;;2.35;;
47413;SDS011;33163;0.000;0.000;2022-10-15T03:54:49;3.55;;;2.40;;
47413;SDS011;33163;0.000;0.000;2022-10-15T03:57:17;4.00;;;2.60;;
47413;SDS011;33163;0.000;0.000;2022-10-15T03:59:44;5.45;;;2.53;;
47413;SDS011;33163;0.000;0.000;2022-10-15T04:02:10;2.75;;;2.40;;
47413;SDS011;33163;0.000;0.000;2022-10-15T04:04:37;3.70;;;2.55;;
47413;SDS011;33163;0.000;0.000;2022-10-15T04:07:04;3.80;;;2.45;;
47413;SDS011;33163;0.000;0.000;2022-10-15T04:09:30;5.22;;;2.50;;
47413;SDS011;33163;0.000;0.000;2022-10-15T04:11:57;3.50;;;2.10;;
47413;SDS011;33163;0.000;0.000;2022-10-15T04:14:25;2.92;;;2.28;;
47413;SDS011;33163;0.000;0.000;2022-10-15T04:16:53;2.65;;;2.13;;
47413;SDS011;33163;0.000;0.000;2022-10-15T04:19:22;3.53;;;2.38;;
47413;SDS011;33163;0.000;0.000;2022-10-15T04:21:49;4.03;;;2.30;;
47413;SDS011;33163;0.000;0.000;2022-10-15T04:24:16;3.47;;;2.35;;
47413;SDS011;33163;0.000;0.000;2022-10-15T04:26:43;5.13;;;2.53;;
47413;SDS011;33163;0.000;0.000;2022-10-15T04:29:09;4.40;;;2.55;;
47413;SDS011;33163;0.000;0.000;2022-10-15T04:31:37;3.15;;;2.10;;
47413;SDS011;33163;0.000;0.000;2022-10-15T04:34:04;2.65;;;1.80;;
47413;SDS011;33163;0.000;0.000;2022-10-15T04:36:31;3.10;;;2.05;;
47413;SDS011;33163;0.000;0.000;2022-10-15T04:38:58;4.00;;;2.50;;
47413;SDS011;33163;0.000;0.000;2022-10-15T04:41:25;4.05;;;2.60;;
47413;SDS011;33163;0.000;0.000;2022-10-15T04:43:52;4.10;;;2.40;;
47413;SDS011;33163;0.000;0.000;2022-10-15T04:46:19;3.78;;;2.78;;
47413;SDS011;33163;0.000;0.000;2022-10-15T04:48:48;3.47;;;2.30;;
47413;SDS011;33163;0.000;0.000;2022-10-15T04:51:15;2.78;;;2.15;;
47413;SDS011;33163;0.000;0.000;2022-10-15T04:53:43;5.07;;;2.00;;
47413;SDS011;33163;0.000;0.000;2022-10-15T04:56:11;4.20;;;2.20;;
47413;SDS011;33163;0.000;0.000;2022-10-15T04:58:39;4.25;;;2.20;;
47413;SDS011;33163;0.000;0.000;2022-10-15T05:01:08;3.65;;;2.53;;
47413;SDS011;33163;0.000;0.000;2022-10-15T05:03:37;3.75;;;2.55;;
47413;SDS011;33163;0.000;0.000;2022-10-15T05:06:07;2.72;;;2.25;;
47413;SDS011;33163;0.000;0.000;2022-10-15T05:08:36;3.85;;;2.25;;
47413;SDS011;33163;0.000;0.000;2022-10-15T05:11:06;3.53;;;2.33;;
47413;SDS011;33163;0.000;0.000;2022-10-15T05:13:34;2.60;;;2.00;;
47413;SDS011;33163;0.000;0.000;2022-10-15T05:16:07;3.17;;;2.00;;
47413;SDS011;33163;0.000;0.000;2022-10-15T05:18:35;2.80;;;2.03;;
47413;SDS011;33163;0.000;0.000;2022-10-15T05:21:03;2.50;;;2.30;;
47413;SDS011;33163;0.000;0.000;2022-10-15T05:23:31;4.68;;;2.13;;
47413;SDS011;33163;0.000;0.000;2022-10-15T05:25:58;2.70;;;2.38;;
47413;SDS011;33163;0.000;0.000;2022-10-15T05:28:25;3.25;;;2.33;;
47413;SDS011;33163;0.000;0.000;2022-10-15T05:30:52;3.00;;;2.78;;
47413;SDS011;33163;0.000;0.000;2022-10-15T05:33:18;5.68;;;2.75;;
47413;SDS011;33163;0.000;0.000;2022-10-15T05:35:45;4.72;;;2.78;;
47413;SDS011;33163;0.000;0.000;2022-10-15T05:38:12;6.47;;;2.92;;
47413;SDS011;33163;0.000;0.000;2022-10-15T05:40:40;3.63;;;2.53;;
47413;SDS011;33163;0.000;0.000;2022-10-15T05:43:13;3.17;;;2.40;;
47413;SDS011;33163;0.000;0.000;2022-10-15T05:45:39;3.10;;;2.72;;
47413;SDS011;33163;0.000;0.000;2022-10-15T05:48:06;3.40;;;2.42;;
47413;SDS011;33163;0.000;0.000;2022-10-15T05:50:33;3.05;;;2.55;;
47413;SDS011;33163;0.000;0.000;2022-10-15T05:53:00;3.00;;;2.35;;
47413;SDS011;33163;0.000;0.000;2022-10-15T05:55:27;3.47;;;2.75;;
47413;SDS011;33163;0.000;0.000;2022-10-15T05:57:55;4.50;;;2.45;;
47413;SDS011;33163;0.000;0.000;2022-10-15T06:00:26;2.60;;;2.13;;
47413;SDS011;33163;0.000;0.000;2022-10-15T06:02:53;4.05;;;2.70;;
47413;SDS011;33163;0.000;0.000;2022-10-15T06:05:19;3.10;;;2.40;;
47413;SDS011;33163;0.000;0.000;2022-10-15T06:07:46;4.03;;;2.70;;
47413;SDS011;33163;0.000;0.000;2022-10-15T06:10:13;3.60;;;3.00;;
47413;SDS011;33163;0.000;0.000;2022-10-15T06:12:40;2.85;;;2.38;;
47413;SDS011;33163;0.000;0.000;2022-10-15T06:15:09;4.40;;;2.78;;
47413;SDS011;33163;0.000;0.000;2022-10-15T06:17:37;5.72;;;2.63;;
47413;SDS011;33163;0.000;0.000;2022-10-15T06:20:04;5.30;;;2.65;;
47413;SDS011;33163;0.000;0.000;2022-10-15T06:22:31;5.82;;;2.55;;
47413;SDS011;33163;0.000;0.000;2022-10-15T06:24:58;3.10;;;2.78;;
47413;SDS011;33163;0.000;0.000;2022-10-15T06:27:25;3.42;;;2.67;;
47413;SDS011;33163;0.000;0.000;2022-10-15T06:29:52;4.10;;;2.60;;
47413;SDS011;33163;0.000;0.000;2022-10-15T06:32:20;3.33;;;2.53;;
47413;SDS011;33163;0.000;0.000;2022-10-15T06:34:47;5.25;;;2.97;;
47413;SDS011;33163;0.000;0.000;2022-10-15T06:37:14;4.68;;;3.05;;
47413;SDS011;33163;0.000;0.000;2022-10-15T06:39:41;3.28;;;2.40;;
47413;SDS011;33163;0.000;0.000;2022-10-15T06:42:07;4.72;;;2.42;;
47413;SDS011;33163;0.000;0.000;2022-10-15T06:44:34;2.90;;;2.65;;
47413;SDS011;33163;0.000;0.000;2022-10-15T06:47:01;4.60;;;2.83;;
47413;SDS011;33163;0.000;0.000;2022-10-15T06:49:29;3.05;;;2.55;;
47413;SDS011;33163;0.000;0.000;2022-10-15T06:51:55;5.25;;;2.60;;
47413;SDS011;33163;0.000;0.000;2022-10-15T06:54:23;2.88;;;2.53;;
47413;SDS011;33163;0.000;0.000;2022-10-15T06:56:50;2.47;;;2.15;;
47413;SDS011;33163;0.000;0.000;2022-10-15T06:59:17;5.53;;;3.00;;
47413;SDS011;33163;0.000;0.000;2022-10-15T07:01:45;8.23;;;2.72;;
47413;SDS011;33163;0.000;0.000;2022-10-15T07:04:12;5.10;;;2.67;;
47413;SDS011;33163;0.000;0.000;2022-10-15T07:06:40;3.05;;;2.40;;
47413;SDS011;33163;0.000;0.000;2022-10-15T07:09:07;4.32;;;2.65;;
47413;SDS011;33163;0.000;0.000;2022-10-15T07:11:34;3.45;;;2.85;;
47413;SDS011;33163;0.000;0.000;2022-10-15T07:14:01;3.42;;;2.70;;
47413;SDS011;33163;0.000;0.000;2022-10-15T07:16:27;3.08;;;2.70;;
47413;SDS011;33163;0.000;0.000;2022-10-15T07:18:54;4.18;;;2.78;;
47413;SDS011;33163;0.000;0.000;2022-10-15T07:21:21;4.00;;;2.90;;
47413;SDS011;33163;0.000;0.000;2022-10-15T07:23:49;3.35;;;3.03;;
47413;SDS011;33163;0.000;0.000;2022-10-15T07:26:16;3.75;;;3.00;;
47413;SDS011;33163;0.000;0.000;2022-10-15T07:28:42;4.53;;;3.13;;
47413;SDS011;33163;0.000;0.000;2022-10-15T07:31:09;4.80;;;3.20;;
47413;SDS011;33163;0.000;0.000;2022-10-15T07:33:36;4.90;;;3.47;;
47413;SDS011;33163;0.000;0.000;2022-10-15T07:36:03;4.22;;;3.50;;
47413;SDS011;33163;0.000;0.000;2022-10-15T07:38:31;4.82;;;3.70;;
47413;SDS011;33163;0.000;0.000;2022-10-15T07:41:00;4.07;;;3.63;;
47413;SDS011;33163;0.000;0.000;2022-10-15T07:43:29;4.30;;;3.90;;
47413;SDS011;33163;0.000;0.000;2022-10-15T07:45:55;6.82;;;4.28;;
47413;SDS011;33163;0.000;0.000;2022-10-15T07:48:22;5.15;;;3.85;;
47413;SDS011;33163;0.000;0.000;2022-10-15T07:50:52;5.72;;;4.00;;
47413;SDS011;33163;0.000;0.000;2022-10-15T07:53:19;5.95;;;3.70;;
47413;SDS011;33163;0.000;0.000;2022-10-15T07:55:46;4.43;;;3.92;;
47413;SDS011;33163;0.000;0.000;2022-10-15T07:58:14;6.15;;;4.30;;
47413;SDS011;33163;0.000;0.000;2022-10-15T08:00:41;4.82;;;4.35;;
47413;SDS011;33163;0.000;0.000;2022-10-15T08:03:08;4.78;;;3.92;;
47413;SDS011;33163;0.000;0.000;2022-10-15T08:05:35;6.75;;;3.22;;
47413;SDS011;33163;0.000;0.000;2022-10-15T08:08:01;4.72;;;3.95;;
47413;SDS011;33163;0.000;0.000;2022-10-15T08:10:28;5.32;;;4.00;;
47413;SDS011;33163;0.000;0.000;2022-10-15T08:12:55;4.82;;;4.30;;
47413;SDS011;33163;0.000;0.000;2022-10-15T08:15:23;5.60;;;4.03;;
47413;SDS011;33163;0.000;0.000;2022-10-15T08:17:50;6.30;;;3.95;;
47413;SDS011;33163;0.000;0.000;2022-10-15T08:20:16;8.55;;;5.20;;
47413;SDS011;33163;0.000;0.000;2022-10-15T08:22:43;6.65;;;5.30;;
47413;SDS011;33163;0.000;0.000;2022-10-15T08:25:10;7.43;;;5.60;;
47413;SDS011;33163;0.000;0.000;2022-10-15T08:27:37;7.68;;;5.15;;
47413;SDS011;33163;0.000;0.000;2022-10-15T08:30:04;9.40;;;6.22;;
47413;SDS011;33163;0.000;0.000;2022-10-15T08:32:35;9.90;;;5.50;;
47413;SDS011;33163;0.000;0.000;2022-10-15T08:35:02;9.25;;;4.93;;
47413;SDS011;33163;0.000;0.000;2022-10-15T08:37:29;11.43;;;6.20;;
47413;SDS011;33163;0.000;0.000;2022-10-15T08:39:56;8.77;;;5.95;;
47413;SDS011;33163;0.000;0.000;2022-10-15T08:42:24;7.35;;;5.97;;
47413;SDS011;33163;0.000;0.000;2022-10-15T08:44:57;8.88;;;5.65;;
47413;SDS011;33163;0.000;0.000;2022-10-15T08:47:28;8.23;;;6.22;;
47413;SDS011;33163;0.000;0.000;2022-10-15T08:50:00;8.48;;;6.72;;
47413;SDS011;33163;0.000;0.000;2022-10-15T08:52:38;7.75;;;6.13;;
47413;SDS011;33163;0.000;0.000;2022-10-15T08:55:08;8.48;;;5.70;;
47413;SDS011;33163;0.000;0.000;2022-10-15T08:57:37;10.07;;;6.30;;
47413;SDS011;33163;0.000;0.000;2022-10-15T09:00:11;11.30;;;6.00;;
47413;SDS011;33163;0.000;0.000;2022-10-15T09:02:41;13.68;;;6.63;;
47413;SDS011;33163;0.000;0.000;2022-10-15T09:05:20;7.68;;;5.93;;
47413;SDS011;33163;0.000;0.000;2022-10-15T09:07:54;9.88;;;6.63;;
47413;SDS011;33163;0.000;0.000;2022-10-15T09:10:26;7.30;;;5.78;;
47413;SDS011;33163;0.000;0.000;2022-10-15T09:13:02;12.45;;;6.03;;
47413;SDS011;33163;0.000;0.000;2022-10-15T09:15:34;9.85;;;5.97;;
47413;SDS011;33163;0.000;0.000;2022-10-15T09:18:07;8.98;;;6.38;;
47413;SDS011;33163;0.000;0.000;2022-10-15T09:20:45;7.75;;;6.65;;
47413;SDS011;33163;0.000;0.000;2022-10-15T09:23:13;11.13;;;7.10;;
47413;SDS011;33163;0.000;0.000;2022-10-15T09:25:44;7.28;;;6.20;;
47413;SDS011;33163;0.000;0.000;2022-10-15T09:28:15;7.68;;;6.03;;
47413;SDS011;33163;0.000;0.000;2022-10-15T09:30:44;9.98;;;7.20;;
47413;SDS011;33163;0.000;0.000;2022-10-15T09:33:15;9.80;;;6.82;;
47413;SDS011;33163;0.000;0.000;2022-10-15T09:35:53;12.75;;;5.85;;
47413;SDS011;33163;0.000;0.000;2022-10-15T09:38:27;10.05;;;5.93;;
47413;SDS011;33163;0.000;0.000;2022-10-15T09:41:02;7.63;;;5.78;;
47413;SDS011;33163;0.000;0.000;2022-10-15T09:43:41;13.60;;;6.13;;
47413;SDS011;33163;0.000;0.000;2022-10-15T09:46:10;10.85;;;6.30;;
47413;SDS011;33163;0.000;0.000;2022-10-15T09:48:40;10.00;;;6.50;;
47413;SDS011;33163;0.000;0.000;2022-10-15T09:51:15;9.25;;;5.55;;
47413;SDS011;33163;0.000;0.000;2022-10-15T09:53:51;8.73;;;5.65;;
47413;SDS011;33163;0.000;0.000;2022-10-15T09:56:27;12.32;;;5.75;;
47413;SDS011;33163;0.000;0.000;2022-10-15T09:58:59;7.30;;;5.40;;
47413;SDS011;33163;0.000;0.000;2022-10-15T10:01:27;9.13;;;5.55;;
47413;SDS011;33163;0.000;0.000;2022-10-15T10:04:09;10.35;;;5.72;;
47413;SDS011;33163;0.000;0.000;2022-10-15T10:06:46;6.80;;;5.35;;
47413;SDS011;33163;0.000;0.000;2022-10-15T10:09:16;6.35;;;5.20;;
47413;SDS011;33163;0.000;0.000;2022-10-15T10:11:46;10.18;;;5.78;;
47413;SDS011;33163;0.000;0.000;2022-10-15T10:14:20;5.70;;;4.78;;
47413;SDS011;33163;0.000;0.000;2022-10-15T10:19:33;6.07;;;5.47;;
47413;SDS011;33163;0.000;0.000;2022-10-15T10:22:06;8.52;;;4.93;;
47413;SDS011;33163;0.000;0.000;2022-10-15T10:24:39;5.72;;;5.05;;
47413;SDS011;33163;0.000;0.000;2022-10-15T10:27:15;8.23;;;4.68;;
47413;SDS011;33163;0.000;0.000;2022-10-15T10:29:47;7.00;;;4.80;;
47413;SDS011;33163;0.000;0.000;2022-10-15T10:32:19;6.40;;;5.50;;
47413;SDS011;33163;0.000;0.000;2022-10-15T10:34:48;6.85;;;4.90;;
47413;SDS011;33163;0.000;0.000;2022-10-15T10:37:16;7.85;;;5.05;;
47413;SDS011;33163;0.000;0.000;2022-10-15T10:39:44;6.30;;;5.13;;
47413;SDS011;33163;0.000;0.000;2022-10-15T10:45:16;9.00;;;4.25;;
47413;SDS011;33163;0.000;0.000;2022-10-15T10:47:44;12.98;;;5.20;;
47413;SDS011;33163;0.000;0.000;2022-10-15T10:50:24;5.20;;;4.28;;
47413;SDS011;33163;0.000;0.000;2022-10-15T10:52:54;7.85;;;4.72;;
47413;SDS011;33163;0.000;0.000;2022-10-15T10:55:24;7.40;;;4.75;;
47413;SDS011;33163;0.000;0.000;2022-10-15T10:57:58;12.10;;;5.32;;
47413;SDS011;33163;0.000;0.000;2022-10-15T11:00:28;5.68;;;4.53;;
47413;SDS011;33163;0.000;0.000;2022-10-15T11:03:00;37.13;;;20.05;;
47413;SDS011;33163;0.000;0.000;2022-10-15T11:05:28;278.08;;;131.45;;
47413;SDS011;33163;0.000;0.000;2022-10-15T11:08:00;281.27;;;128.45;;
47413;SDS011;33163;0.000;0.000;2022-10-15T11:10:36;198.85;;;91.80;;
47413;SDS011;33163;0.000;0.000;2022-10-15T11:13:10;183.35;;;87.78;;
47413;SDS011;33163;0.000;0.000;2022-10-15T11:15:48;185.43;;;87.50;;
47413;SDS011;33163;0.000;0.000;2022-10-15T11:18:27;188.73;;;89.63;;
47413;SDS011;33163;0.000;0.000;2022-10-15T11:21:02;185.88;;;90.57;;
47413;SDS011;33163;0.000;0.000;2022-10-15T11:26:39;180.70;;;85.97;;
47413;SDS011;33163;0.000;0.000;2022-10-15T11:29:16;174.07;;;85.18;;
47413;SDS011;33163;0.000;0.000;2022-10-15T11:31:50;175.32;;;85.63;;
47413;SDS011;33163;0.000;0.000;2022-10-15T11:34:30;166.48;;;82.80;;
47413;SDS011;33163;0.000;0.000;2022-10-15T11:37:11;183.82;;;87.88;;
47413;SDS011;33163;0.000;0.000;2022-10-15T11:39:56;179.00;;;87.95;;
47413;SDS011;33163;0.000;0.000;2022-10-15T11:42:43;158.48;;;77.55;;
47413;SDS011;33163;0.000;0.000;2022-10-15T11:45:34;167.52;;;76.78;;
47413;SDS011;33163;0.000;0.000;2022-10-15T11:48:17;166.18;;;80.57;;
47413;SDS011;33163;0.000;0.000;2022-10-15T11:50:56;157.77;;;78.68;;
47413;SDS011;33163;0.000;0.000;2022-10-15T11:53:29;152.55;;;75.03;;
47413;SDS011;33163;0.000;0.000;2022-10-15T11:56:17;153.85;;;75.13;;
47413;SDS011;33163;0.000;0.000;2022-10-15T11:58:48;160.23;;;76.10;;
47413;SDS011;33163;0.000;0.000;2022-10-15T12:01:18;148.63;;;74.28;;
47413;SDS011;33163;0.000;0.000;2022-10-15T12:03:50;159.65;;;78.45;;
47413;SDS011;33163;0.000;0.000;2022-10-15T12:06:20;145.15;;;71.95;;
47413;SDS011;33163;0.000;0.000;2022-10-15T12:08:49;150.20;;;74.85;;
47413;SDS011;33163;0.000;0.000;2022-10-15T12:11:22;128.35;;;61.97;;
47413;SDS011;33163;0.000;0.000;2022-10-15T12:14:01;137.43;;;65.57;;
47413;SDS011;33163;0.000;0.000;2022-10-15T12:16:34;130.68;;;66.55;;
47413;SDS011;33163;0.000;0.000;2022-10-15T12:19:09;137.43;;;64.72;;
47413;SDS011;33163;0.000;0.000;2022-10-15T12:21:42;140.55;;;68.85;;
47413;SDS011;33163;0.000;0.000;2022-10-15T12:27:20;125.22;;;61.65;;
47413;SDS011;33163;0.000;0.000;2022-10-15T12:29:49;116.25;;;57.97;;
47413;SDS011;33163;0.000;0.000;2022-10-15T12:32:20;110.78;;;57.22;;
47413;SDS011;33163;0.000;0.000;2022-10-15T12:34:52;116.95;;;56.05;;
47413;SDS011;33163;0.000;0.000;2022-10-15T12:37:21;101.90;;;53.45;;
47413;SDS011;33163;0.000;0.000;2022-10-15T12:39:53;107.40;;;53.42;;
47413;SDS011;33163;0.000;0.000;2022-10-15T12:42:24;115.32;;;56.20;;
47413;SDS011;33163;0.000;0.000;2022-10-15T12:44:53;105.47;;;52.90;;
47413;SDS011;33163;0.000;0.000;2022-10-15T12:50:16;102.28;;;51.55;;
47413;SDS011;33163;0.000;0.000;2022-10-15T12:52:51;99.63;;;49.88;;
47413;SDS011;33163;0.000;0.000;2022-10-15T12:55:22;99.57;;;49.33;;
47413;SDS011;33163;0.000;0.000;2022-10-15T12:58:23;96.03;;;49.05;;
47413;SDS011;33163;0.000;0.000;2022-10-15T13:00:57;97.13;;;47.53;;
47413;SDS011;33163;0.000;0.000;2022-10-15T13:03:33;99.07;;;50.00;;
47413;SDS011;33163;0.000;0.000;2022-10-15T13:06:12;87.32;;;43.55;;
47413;SDS011;33163;0.000;0.000;2022-10-15T13:09:02;89.10;;;44.53;;
47413;SDS011;33163;0.000;0.000;2022-10-15T13:11:45;85.95;;;42.03;;
47413;SDS011;33163;0.000;0.000;2022-10-15T13:14:26;77.97;;;38.15;;
47413;SDS011;33163;0.000;0.000;2022-10-15T13:16:55;74.25;;;37.15;;
47413;SDS011;33163;0.000;0.000;2022-10-15T13:19:24;80.15;;;39.47;;
47413;SDS011;33163;0.000;0.000;2022-10-15T13:21:53;69.82;;;36.38;;
47413;SDS011;33163;0.000;0.000;2022-10-15T13:24:22;74.18;;;37.22;;
47413;SDS011;33163;0.000;0.000;2022-10-15T13:26:52;72.25;;;35.08;;
47413;SDS011;33163;0.000;0.000;2022-10-15T13:29:23;69.78;;;34.58;;
47413;SDS011;33163;0.000;0.000;2022-10-15T13:31:50;65.65;;;31.75;;
47413;SDS011;33163;0.000;0.000;2022-10-15T13:34:26;65.90;;;33.88;;
47413;SDS011;33163;0.000;0.000;2022-10-15T13:36:55;64.50;;;31.42;;
47413;SDS011;33163;0.000;0.000;2022-10-15T13:39:26;57.08;;;31.08;;
47413;SDS011;33163;0.000;0.000;2022-10-15T13:42:02;55.22;;;28.02;;
47413;SDS011;33163;0.000;0.000;2022-10-15T13:44:34;64.60;;;30.95;;
47413;SDS011;33163;0.000;0.000;2022-10-15T13:47:01;60.33;;;29.33;;
47413;SDS011;33163;0.000;0.000;2022-10-15T13:49:28;55.10;;;29.02;;
47413;SDS011;33163;0.000;0.000;2022-10-15T13:51:55;55.83;;;27.42;;
47413;SDS011;33163;0.000;0.000;2022-10-15T13:54:22;49.95;;;27.33;;
47413;SDS011;33163;0.000;0.000;2022-10-15T13:56:53;51.15;;;26.05;;
47413;SDS011;33163;0.000;0.000;2022-10-15T13:59:22;58.70;;;26.80;;
47413;SDS011;33163;0.000;0.000;2022-10-15T14:01:52;50.35;;;25.02;;
47413;SDS011;33163;0.000;0.000;2022-10-15T14:04:25;54.17;;;26.42;;
47413;SDS011;33163;0.000;0.000;2022-10-15T14:06:53;50.38;;;25.85;;
47413;SDS011;33163;0.000;0.000;2022-10-15T14:09:26;48.55;;;25.33;;
47413;SDS011;33163;0.000;0.000;2022-10-15T14:11:55;43.47;;;23.23;;
47413;SDS011;33163;0.000;0.000;2022-10-15T14:14:26;45.88;;;23.90;;
47413;SDS011;33163;0.000;0.000;2022-10-15T14:16:55;46.13;;;22.13;;
47413;SDS011;33163;0.000;0.000;2022-10-15T14:19:23;46.00;;;22.35;;
47413;SDS011;33163;0.000;0.000;2022-10-15T14:21:54;39.65;;;20.48;;
47413;SDS011;33163;0.000;0.000;2022-10-15T14:24:22;40.00;;;20.30;;
47413;SDS011;33163;0.000;0.000;2022-10-15T14:26:54;37.53;;;21.23;;
47413;SDS011;33163;0.000;0.000;2022-10-15T14:29:28;44.50;;;20.65;;
47413;SDS011;33163;0.000;0.000;2022-10-15T14:32:03;37.95;;;18.48;;
47413;SDS011;33163;0.000;0.000;2022-10-15T14:34:44;37.53;;;18.05;;
47413;SDS011;33163;0.000;0.000;2022-10-15T14:37:27;39.53;;;18.48;;
47413;SDS011;33163;0.000;0.000;2022-10-15T14:40:12;43.50;;;19.30;;
47413;SDS011;33163;0.000;0.000;2022-10-15T14:42:41;39.80;;;18.65;;
47413;SDS011;33163;0.000;0.000;2022-10-15T14:45:10;39.13;;;18.27;;
47413;SDS011;33163;0.000;0.000;2022-10-15T14:47:40;36.05;;;18.13;;
47413;SDS011;33163;0.000;0.000;2022-10-15T14:50:10;44.08;;;17.88;;
47413;SDS011;33163;0.000;0.000;2022-10-15T14:52:39;29.23;;;16.23;;
47413;SDS011;33163;0.000;0.000;2022-10-15T14:55:12;35.33;;;15.70;;
47413;SDS011;33163;0.000;0.000;2022-10-15T14:57:43;35.15;;;15.82;;
47413;SDS011;33163;0.000;0.000;2022-10-15T15:00:13;36.25;;;16.27;;
47413;SDS011;33163;0.000;0.000;2022-10-15T15:02:46;31.05;;;15.85;;
47413;SDS011;33163;0.000;0.000;2022-10-15T15:05:16;37.38;;;16.73;;
47413;SDS011;33163;0.000;0.000;2022-10-15T15:07:46;44.30;;;15.77;;
47413;SDS011;33163;0.000;0.000;2022-10-15T15:10:13;33.45;;;15.70;;
47413;SDS011;33163;0.000;0.000;2022-10-15T15:12:41;38.47;;;15.95;;
47413;SDS011;33163;0.000;0.000;2022-10-15T15:15:11;32.78;;;15.50;;
47413;SDS011;33163;0.000;0.000;2022-10-15T15:17:39;35.40;;;13.80;;
47413;SDS011;33163;0.000;0.000;2022-10-15T15:20:09;31.17;;;13.88;;
47413;SDS011;33163;0.000;0.000;2022-10-15T15:22:36;31.02;;;13.57;;
47413;SDS011;33163;0.000;0.000;2022-10-15T15:25:05;29.25;;;13.55;;
47413;SDS011;33163;0.000;0.000;2022-10-15T15:27:39;32.65;;;13.02;;
47413;SDS011;33163;0.000;0.000;2022-10-15T15:30:06;25.08;;;13.50;;
47413;SDS011;33163;0.000;0.000;2022-10-15T15:32:39;27.45;;;12.88;;